sensor_id;sensor_type;location;lat;lon;timestamp;pressure;altitude;pressure_sealevel;temperature;humidity
2339;BME280;1180;51.438;6.978;2024-03-06T00:00:36;100423.63;;;9.13;89.30
2339;BME280;1180;51.438;6.978;2024-03-06T00:03:02;100430.78;;;9.06;89.69
2339;BME280;1180;51.438;6.978;2024-03-06T00:05:28;100431.47;;;9.09;89.16
2339;BME280;1180;51.438;6.978;2024-03-06T00:07:53;100435.88;;;9.06;89.51
2339;BME280;1180;51.438;6.978;2024-03-06T00:10:19;100438.22;;;9.10;88.79
2339;BME280;1180;51.438;6.978;2024-03-06T00:12:44;100438.84;;;8.98;89.27
2339;BME280;1180;51.438;6.978;2024-03-06T00:15:09;100445.56;;;8.83;89.61
2339;BME280;1180;51.438;6.978;2024-03-06T00:17:35;100445.25;;;8.89;90.81
2339;BME280;1180;51.438;6.978;2024-03-06T00:20:00;100444.94;;;8.95;90.04
2339;BME280;1180;51.438;6.978;2024-03-06T00:22:26;100457.81;;;8.94;90.54
2339;BME280;1180;51.438;6.978;2024-03-06T00:24:51;100454.78;;;8.86;90.49
2339;BME280;1180;51.438;6.978;2024-03-06T00:27:17;100460.06;;;8.82;89.62
2339;BME280;1180;51.438;6.978;2024-03-06T00:29:42;100469.63;;;8.79;88.63
2339;BME280;1180;51.438;6.978;2024-03-06T00:32:07;100470.16;;;8.86;88.29
2339;BME280;1180;51.438;6.978;2024-03-06T00:34:33;100477.91;;;8.84;88.93
2339;BME280;1180;51.438;6.978;2024-03-06T00:36:58;100479.03;;;8.78;88.38
2339;BME280;1180;51.438;6.978;2024-03-06T00:39:24;100474.66;;;8.80;88.11
2339;BME280;1180;51.438;6.978;2024-03-06T00:41:49;100479.94;;;8.77;87.84
2339;BME280;1180;51.438;6.978;2024-03-06T00:44:15;100478.56;;;8.70;87.34
2339;BME280;1180;51.438;6.978;2024-03-06T00:46:42;100479.78;;;8.63;87.74
2339;BME280;1180;51.438;6.978;2024-03-06T00:49:07;100478.94;;;8.62;87.51
2339;BME280;1180;51.438;6.978;2024-03-06T00:51:33;100476.06;;;8.51;88.97
2339;BME280;1180;51.438;6.978;2024-03-06T00:54:01;100474.94;;;8.57;89.64
2339;BME280;1180;51.438;6.978;2024-03-06T00:56:26;100478.44;;;8.73;89.58
2339;BME280;1180;51.438;6.978;2024-03-06T00:58:52;100483.16;;;8.63;88.69
2339;BME280;1180;51.438;6.978;2024-03-06T01:01:17;100481.69;;;8.58;88.34
2339;BME280;1180;51.438;6.978;2024-03-06T01:03:42;100485.41;;;8.52;89.68
2339;BME280;1180;51.438;6.978;2024-03-06T01:06:08;100488.63;;;8.56;89.94
2339;BME280;1180;51.438;6.978;2024-03-06T01:08:33;100495.63;;;8.52;90.66
2339;BME280;1180;51.438;6.978;2024-03-06T01:10:58;100498.19;;;8.52;90.87
2339;BME280;1180;51.438;6.978;2024-03-06T01:13:24;100497.75;;;8.61;90.34
2339;BME280;1180;51.438;6.978;2024-03-06T01:15:49;100505.22;;;8.66;89.97
2339;BME280;1180;51.438;6.978;2024-03-06T01:18:14;100505.13;;;8.67;89.84
2339;BME280;1180;51.438;6.978;2024-03-06T01:20:40;100509.03;;;8.57;91.06
2339;BME280;1180;51.438;6.978;2024-03-06T01:23:05;100510.22;;;8.50;92.38
2339;BME280;1180;51.438;6.978;2024-03-06T01:25:31;100514.16;;;8.57;92.66
2339;BME280;1180;51.438;6.978;2024-03-06T01:27:56;100512.13;;;8.64;92.83
2339;BME280;1180;51.438;6.978;2024-03-06T01:30:22;100513.16;;;8.79;91.88
2339;BME280;1180;51.438;6.978;2024-03-06T01:32:47;100517.06;;;8.86;90.71
2339;BME280;1180;51.438;6.978;2024-03-06T01:35:13;100525.50;;;8.88;90.45
2339;BME280;1180;51.438;6.978;2024-03-06T01:37:38;100522.31;;;8.83;90.53
2339;BME280;1180;51.438;6.978;2024-03-06T01:40:04;100520.59;;;8.84;90.87
2339;BME280;1180;51.438;6.978;2024-03-06T01:42:30;100518.78;;;8.86;91.06
2339;BME280;1180;51.438;6.978;2024-03-06T01:44:56;100517.22;;;8.83;90.97
2339;BME280;1180;51.438;6.978;2024-03-06T01:47:21;100519.97;;;8.78;90.57
2339;BME280;1180;51.438;6.978;2024-03-06T01:49:47;100519.31;;;8.56;92.18
2339;BME280;1180;51.438;6.978;2024-03-06T01:52:14;100514.69;;;8.64;92.83
2339;BME280;1180;51.438;6.978;2024-03-06T01:54:40;100511.38;;;8.62;92.46
2339;BME280;1180;51.438;6.978;2024-03-06T01:57:14;100504.69;;;8.77;92.43
2339;BME280;1180;51.438;6.978;2024-03-06T01:59:42;100513.28;;;8.93;90.54
2339;BME280;1180;51.438;6.978;2024-03-06T02:02:07;100514.56;;;8.85;90.19
2339;BME280;1180;51.438;6.978;2024-03-06T02:04:37;100511.34;;;8.81;90.23
2339;BME280;1180;51.438;6.978;2024-03-06T02:07:02;100519.69;;;8.85;90.03
2339;BME280;1180;51.438;6.978;2024-03-06T02:09:28;100518.25;;;8.79;89.67
2339;BME280;1180;51.438;6.978;2024-03-06T02:11:53;100511.59;;;8.75;89.86
2339;BME280;1180;51.438;6.978;2024-03-06T02:14:19;100513.06;;;8.80;89.30
2339;BME280;1180;51.438;6.978;2024-03-06T02:16:44;100513.91;;;8.81;88.43
2339;BME280;1180;51.438;6.978;2024-03-06T02:19:10;100510.69;;;8.58;89.85
2339;BME280;1180;51.438;6.978;2024-03-06T02:21:35;100516.41;;;8.63;90.49
2339;BME280;1180;51.438;6.978;2024-03-06T02:24:00;100517.47;;;8.59;90.35
2339;BME280;1180;51.438;6.978;2024-03-06T02:26:26;100514.91;;;8.59;89.86
2339;BME280;1180;51.438;6.978;2024-03-06T02:28:53;100515.34;;;8.50;90.11
2339;BME280;1180;51.438;6.978;2024-03-06T02:31:20;100519.59;;;8.49;89.94
2339;BME280;1180;51.438;6.978;2024-03-06T02:33:46;100514.19;;;8.56;88.88
2339;BME280;1180;51.438;6.978;2024-03-06T02:36:15;100520.06;;;8.58;88.60
2339;BME280;1180;51.438;6.978;2024-03-06T02:38:42;100516.41;;;8.63;87.94
2339;BME280;1180;51.438;6.978;2024-03-06T02:41:07;100518.22;;;8.61;87.20
2339;BME280;1180;51.438;6.978;2024-03-06T02:43:33;100518.66;;;8.52;87.08
2339;BME280;1180;51.438;6.978;2024-03-06T02:45:59;100520.34;;;8.51;87.87
2339;BME280;1180;51.438;6.978;2024-03-06T02:48:24;100520.75;;;8.42;88.22
2339;BME280;1180;51.438;6.978;2024-03-06T02:50:50;100520.81;;;8.41;88.21
2339;BME280;1180;51.438;6.978;2024-03-06T02:53:15;100517.16;;;8.46;88.11
2339;BME280;1180;51.438;6.978;2024-03-06T02:55:40;100517.16;;;8.46;87.90
2339;BME280;1180;51.438;6.978;2024-03-06T02:58:06;100516.22;;;8.30;88.76
2339;BME280;1180;51.438;6.978;2024-03-06T03:00:31;100517.50;;;8.38;89.02
2339;BME280;1180;51.438;6.978;2024-03-06T03:02:57;100529.94;;;8.46;88.07
2339;BME280;1180;51.438;6.978;2024-03-06T03:05:24;100528.56;;;8.39;89.08
2339;BME280;1180;51.438;6.978;2024-03-06T03:07:50;100528.16;;;8.48;89.02
2339;BME280;1180;51.438;6.978;2024-03-06T03:10:16;100538.56;;;8.44;90.28
2339;BME280;1180;51.438;6.978;2024-03-06T03:12:42;100534.66;;;8.36;90.71
2339;BME280;1180;51.438;6.978;2024-03-06T03:15:08;100525.28;;;8.56;91.05
2339;BME280;1180;51.438;6.978;2024-03-06T03:17:34;100528.03;;;8.51;91.45
2339;BME280;1180;51.438;6.978;2024-03-06T03:20:00;100529.63;;;8.54;91.76
2339;BME280;1180;51.438;6.978;2024-03-06T03:22:27;100535.63;;;8.72;91.33
2339;BME280;1180;51.438;6.978;2024-03-06T03:24:53;100535.53;;;8.74;91.20
2339;BME280;1180;51.438;6.978;2024-03-06T03:27:19;100532.22;;;8.72;92.02
2339;BME280;1180;51.438;6.978;2024-03-06T03:29:45;100542.03;;;8.81;91.99
2339;BME280;1180;51.438;6.978;2024-03-06T03:32:10;100530.34;;;8.75;91.97
2339;BME280;1180;51.438;6.978;2024-03-06T03:34:35;100537.53;;;8.86;92.04
2339;BME280;1180;51.438;6.978;2024-03-06T03:37:01;100535.13;;;9.01;91.43
2339;BME280;1180;51.438;6.978;2024-03-06T03:39:27;100530.91;;;9.00;91.46
2339;BME280;1180;51.438;6.978;2024-03-06T03:41:52;100545.16;;;9.05;91.70
2339;BME280;1180;51.438;6.978;2024-03-06T03:44:18;100549.38;;;9.06;91.58
2339;BME280;1180;51.438;6.978;2024-03-06T03:46:44;100545.31;;;9.02;91.86
2339;BME280;1180;51.438;6.978;2024-03-06T03:49:10;100543.06;;;8.96;91.83
2339;BME280;1180;51.438;6.978;2024-03-06T03:51:37;100547.19;;;8.99;92.43
2339;BME280;1180;51.438;6.978;2024-03-06T03:54:02;100553.00;;;9.02;93.03
2339;BME280;1180;51.438;6.978;2024-03-06T03:56:28;100555.31;;;9.07;92.48
2339;BME280;1180;51.438;6.978;2024-03-06T03:58:53;100557.25;;;9.02;92.10
2339;BME280;1180;51.438;6.978;2024-03-06T04:01:19;100565.69;;;9.04;90.99
2339;BME280;1180;51.438;6.978;2024-03-06T04:03:44;100557.78;;;8.91;91.83
2339;BME280;1180;51.438;6.978;2024-03-06T04:06:10;100560.72;;;9.01;91.36
2339;BME280;1180;51.438;6.978;2024-03-06T04:08:36;100561.19;;;8.91;91.71
2339;BME280;1180;51.438;6.978;2024-03-06T04:11:05;100563.72;;;8.91;92.58
2339;BME280;1180;51.438;6.978;2024-03-06T04:13:35;100566.19;;;8.93;93.51
2339;BME280;1180;51.438;6.978;2024-03-06T04:16:01;100562.31;;;9.03;93.50
2339;BME280;1180;51.438;6.978;2024-03-06T04:18:27;100572.41;;;9.06;93.29
2339;BME280;1180;51.438;6.978;2024-03-06T04:20:53;100574.69;;;9.13;93.11
2339;BME280;1180;51.438;6.978;2024-03-06T04:23:18;100578.34;;;9.07;93.96
2339;BME280;1180;51.438;6.978;2024-03-06T04:25:43;100577.78;;;9.19;92.94
2339;BME280;1180;51.438;6.978;2024-03-06T04:28:09;100577.09;;;9.16;93.13
2339;BME280;1180;51.438;6.978;2024-03-06T04:30:35;100582.06;;;9.19;92.65
2339;BME280;1180;51.438;6.978;2024-03-06T04:33:00;100579.19;;;9.07;92.58
2339;BME280;1180;51.438;6.978;2024-03-06T04:35:26;100590.53;;;9.02;92.96
2339;BME280;1180;51.438;6.978;2024-03-06T04:37:51;100592.28;;;9.01;92.87
2339;BME280;1180;51.438;6.978;2024-03-06T04:40:16;100589.59;;;9.04;92.61
2339;BME280;1180;51.438;6.978;2024-03-06T04:42:45;100591.16;;;9.07;92.81
2339;BME280;1180;51.438;6.978;2024-03-06T04:45:15;100600.44;;;9.09;92.53
2339;BME280;1180;51.438;6.978;2024-03-06T04:47:41;100600.88;;;9.18;92.01
2339;BME280;1180;51.438;6.978;2024-03-06T04:50:10;100592.31;;;9.19;91.49
2339;BME280;1180;51.438;6.978;2024-03-06T04:52:40;100604.59;;;9.12;91.58
2339;BME280;1180;51.438;6.978;2024-03-06T04:55:06;100605.56;;;9.09;92.08
2339;BME280;1180;51.438;6.978;2024-03-06T04:57:32;100610.66;;;9.09;92.37
2339;BME280;1180;51.438;6.978;2024-03-06T04:59:57;100607.81;;;9.16;91.78
2339;BME280;1180;51.438;6.978;2024-03-06T05:02:24;100614.69;;;9.15;92.43
2339;BME280;1180;51.438;6.978;2024-03-06T05:04:50;100620.47;;;9.19;91.92
2339;BME280;1180;51.438;6.978;2024-03-06T05:07:16;100617.31;;;9.14;91.87
2339;BME280;1180;51.438;6.978;2024-03-06T05:09:41;100621.38;;;9.18;90.52
2339;BME280;1180;51.438;6.978;2024-03-06T05:12:07;100626.25;;;9.05;90.53
2339;BME280;1180;51.438;6.978;2024-03-06T05:14:32;100624.97;;;8.96;90.80
2339;BME280;1180;51.438;6.978;2024-03-06T05:16:58;100631.78;;;8.95;91.74
2339;BME280;1180;51.438;6.978;2024-03-06T05:19:23;100623.75;;;9.03;90.85
2339;BME280;1180;51.438;6.978;2024-03-06T05:21:56;100629.56;;;9.07;90.60
2339;BME280;1180;51.438;6.978;2024-03-06T05:24:21;100635.97;;;8.79;91.15
2339;BME280;1180;51.438;6.978;2024-03-06T05:26:47;100638.38;;;8.82;91.92
2339;BME280;1180;51.438;6.978;2024-03-06T05:29:12;100642.47;;;8.86;92.01
2339;BME280;1180;51.438;6.978;2024-03-06T05:31:38;100647.28;;;8.92;91.73
2339;BME280;1180;51.438;6.978;2024-03-06T05:34:03;100649.88;;;8.73;91.63
2339;BME280;1180;51.438;6.978;2024-03-06T05:36:30;100658.44;;;8.72;92.47
2339;BME280;1180;51.438;6.978;2024-03-06T05:38:55;100664.03;;;8.80;91.57
2339;BME280;1180;51.438;6.978;2024-03-06T05:41:20;100664.22;;;8.76;91.48
2339;BME280;1180;51.438;6.978;2024-03-06T05:43:46;100659.13;;;8.76;91.07
2339;BME280;1180;51.438;6.978;2024-03-06T05:46:11;100657.88;;;8.65;91.55
2339;BME280;1180;51.438;6.978;2024-03-06T05:48:36;100658.88;;;8.63;92.06
2339;BME280;1180;51.438;6.978;2024-03-06T05:51:02;100674.22;;;8.63;92.77
2339;BME280;1180;51.438;6.978;2024-03-06T05:53:28;100672.41;;;8.65;92.13
2339;BME280;1180;51.438;6.978;2024-03-06T05:55:53;100676.25;;;8.55;93.57
2339;BME280;1180;51.438;6.978;2024-03-06T05:58:19;100677.16;;;8.53;94.58
2339;BME280;1180;51.438;6.978;2024-03-06T06:00:45;100682.56;;;8.66;94.96
2339;BME280;1180;51.438;6.978;2024-03-06T06:03:10;100687.50;;;8.71;94.58
2339;BME280;1180;51.438;6.978;2024-03-06T06:05:39;100685.53;;;8.76;94.78
2339;BME280;1180;51.438;6.978;2024-03-06T06:08:05;100683.31;;;8.88;93.90
2339;BME280;1180;51.438;6.978;2024-03-06T06:10:30;100686.66;;;8.90;93.79
2339;BME280;1180;51.438;6.978;2024-03-06T06:12:56;100695.84;;;8.75;93.10
2339;BME280;1180;51.438;6.978;2024-03-06T06:15:21;100685.88;;;8.69;94.08
2339;BME280;1180;51.438;6.978;2024-03-06T06:17:47;100686.78;;;8.67;94.09
2339;BME280;1180;51.438;6.978;2024-03-06T06:20:13;100692.94;;;8.63;93.77
2339;BME280;1180;51.438;6.978;2024-03-06T06:22:43;100703.31;;;8.79;95.19
2339;BME280;1180;51.438;6.978;2024-03-06T06:25:09;100702.66;;;8.95;93.77
2339;BME280;1180;51.438;6.978;2024-03-06T06:27:35;100707.69;;;9.16;92.39
2339;BME280;1180;51.438;6.978;2024-03-06T06:30:00;100710.56;;;9.08;90.91
2339;BME280;1180;51.438;6.978;2024-03-06T06:32:25;100713.41;;;9.02;91.15
2339;BME280;1180;51.438;6.978;2024-03-06T06:34:51;100719.72;;;8.94;91.65
2339;BME280;1180;51.438;6.978;2024-03-06T06:37:17;100726.78;;;8.89;91.98
2339;BME280;1180;51.438;6.978;2024-03-06T06:39:43;100722.34;;;8.93;91.72
2339;BME280;1180;51.438;6.978;2024-03-06T06:42:08;100728.13;;;8.98;91.87
2339;BME280;1180;51.438;6.978;2024-03-06T06:44:36;100734.47;;;8.89;91.93
2339;BME280;1180;51.438;6.978;2024-03-06T06:47:02;100731.69;;;8.94;92.16
2339;BME280;1180;51.438;6.978;2024-03-06T06:49:27;100731.06;;;8.89;91.81
2339;BME280;1180;51.438;6.978;2024-03-06T06:51:54;100734.25;;;8.94;91.42
2339;BME280;1180;51.438;6.978;2024-03-06T06:54:19;100740.91;;;8.98;90.91
2339;BME280;1180;51.438;6.978;2024-03-06T06:56:45;100743.81;;;8.90;91.43
2339;BME280;1180;51.438;6.978;2024-03-06T06:59:10;100747.81;;;8.96;92.15
2339;BME280;1180;51.438;6.978;2024-03-06T07:01:36;100747.41;;;8.86;91.56
2339;BME280;1180;51.438;6.978;2024-03-06T07:04:01;100751.66;;;8.86;93.07
2339;BME280;1180;51.438;6.978;2024-03-06T07:06:27;100755.75;;;8.90;91.50
2339;BME280;1180;51.438;6.978;2024-03-06T07:08:52;100757.94;;;8.99;90.90
2339;BME280;1180;51.438;6.978;2024-03-06T07:11:18;100759.88;;;9.13;89.59
2339;BME280;1180;51.438;6.978;2024-03-06T07:13:44;100765.59;;;8.99;89.74
2339;BME280;1180;51.438;6.978;2024-03-06T07:16:09;100769.25;;;8.93;89.95
2339;BME280;1180;51.438;6.978;2024-03-06T07:18:35;100774.31;;;8.95;90.35
2339;BME280;1180;51.438;6.978;2024-03-06T07:21:01;100768.41;;;8.93;90.67
2339;BME280;1180;51.438;6.978;2024-03-06T07:23:26;100768.78;;;9.04;90.34
2339;BME280;1180;51.438;6.978;2024-03-06T07:25:52;100774.44;;;8.92;90.80
2339;BME280;1180;51.438;6.978;2024-03-06T07:28:17;100770.75;;;8.78;92.23
2339;BME280;1180;51.438;6.978;2024-03-06T07:30:43;100766.59;;;8.76;93.57
2339;BME280;1180;51.438;6.978;2024-03-06T07:33:08;100778.16;;;8.85;93.83
2339;BME280;1180;51.438;6.978;2024-03-06T07:35:34;100779.31;;;8.98;92.92
2339;BME280;1180;51.438;6.978;2024-03-06T07:38:01;100784.50;;;9.16;92.74
2339;BME280;1180;51.438;6.978;2024-03-06T07:40:28;100789.19;;;9.25;91.90
2339;BME280;1180;51.438;6.978;2024-03-06T07:42:53;100789.63;;;9.16;92.20
2339;BME280;1180;51.438;6.978;2024-03-06T07:45:18;100789.34;;;9.22;92.59
2339;BME280;1180;51.438;6.978;2024-03-06T07:47:45;100790.81;;;9.28;92.58
2339;BME280;1180;51.438;6.978;2024-03-06T07:50:11;100791.41;;;9.33;92.85
2339;BME280;1180;51.438;6.978;2024-03-06T07:52:36;100794.31;;;9.44;92.73
2339;BME280;1180;51.438;6.978;2024-03-06T07:55:02;100792.31;;;9.51;92.61
2339;BME280;1180;51.438;6.978;2024-03-06T07:57:28;100796.69;;;9.49;92.40
2339;BME280;1180;51.438;6.978;2024-03-06T07:59:53;100798.19;;;9.53;93.11
2339;BME280;1180;51.438;6.978;2024-03-06T08:02:20;100803.88;;;9.60;93.37
2339;BME280;1180;51.438;6.978;2024-03-06T08:04:46;100806.63;;;9.55;92.73
2339;BME280;1180;51.438;6.978;2024-03-06T08:07:12;100811.75;;;9.55;93.06
2339;BME280;1180;51.438;6.978;2024-03-06T08:09:38;100805.72;;;9.56;93.43
2339;BME280;1180;51.438;6.978;2024-03-06T08:12:03;100808.66;;;9.67;93.36
2339;BME280;1180;51.438;6.978;2024-03-06T08:14:29;100817.91;;;9.70;93.21
2339;BME280;1180;51.438;6.978;2024-03-06T08:16:55;100821.94;;;9.76;93.66
2339;BME280;1180;51.438;6.978;2024-03-06T08:19:20;100827.19;;;9.73;94.27
2339;BME280;1180;51.438;6.978;2024-03-06T08:21:46;100832.25;;;9.74;93.57
2339;BME280;1180;51.438;6.978;2024-03-06T08:24:11;100842.88;;;9.66;93.96
2339;BME280;1180;51.438;6.978;2024-03-06T08:26:37;100847.00;;;9.69;93.83
2339;BME280;1180;51.438;6.978;2024-03-06T08:29:03;100849.72;;;9.66;94.08
2339;BME280;1180;51.438;6.978;2024-03-06T08:31:28;100846.47;;;9.62;94.34
2339;BME280;1180;51.438;6.978;2024-03-06T08:33:54;100851.47;;;9.65;94.45
2339;BME280;1180;51.438;6.978;2024-03-06T08:36:19;100857.47;;;9.64;94.61
2339;BME280;1180;51.438;6.978;2024-03-06T08:38:46;100865.94;;;9.66;94.48
2339;BME280;1180;51.438;6.978;2024-03-06T08:41:11;100864.41;;;9.62;95.24
2339;BME280;1180;51.438;6.978;2024-03-06T08:43:37;100869.09;;;9.72;94.73
2339;BME280;1180;51.438;6.978;2024-03-06T08:46:02;100869.88;;;9.74;93.58
2339;BME280;1180;51.438;6.978;2024-03-06T08:48:28;100876.94;;;9.68;93.72
2339;BME280;1180;51.438;6.978;2024-03-06T08:50:55;100871.59;;;9.73;94.21
2339;BME280;1180;51.438;6.978;2024-03-06T08:53:20;100884.75;;;9.85;94.09
2339;BME280;1180;51.438;6.978;2024-03-06T08:55:46;100882.72;;;9.91;93.23
2339;BME280;1180;51.438;6.978;2024-03-06T08:58:12;100880.16;;;9.91;93.48
2339;BME280;1180;51.438;6.978;2024-03-06T09:00:39;100879.75;;;10.01;93.85
2339;BME280;1180;51.438;6.978;2024-03-06T09:03:04;100890.47;;;10.09;93.43
2339;BME280;1180;51.438;6.978;2024-03-06T09:05:30;100882.03;;;10.07;92.93
2339;BME280;1180;51.438;6.978;2024-03-06T09:07:56;100896.84;;;10.00;93.50
2339;BME280;1180;51.438;6.978;2024-03-06T09:10:23;100891.06;;;9.96;93.91
2339;BME280;1180;51.438;6.978;2024-03-06T09:12:48;100892.78;;;9.96;93.99
2339;BME280;1180;51.438;6.978;2024-03-06T09:15:14;100898.53;;;10.01;94.47
2339;BME280;1180;51.438;6.978;2024-03-06T09:17:40;100901.16;;;10.00;93.80
2339;BME280;1180;51.438;6.978;2024-03-06T09:20:07;100904.78;;;9.95;94.07
2339;BME280;1180;51.438;6.978;2024-03-06T09:22:41;100904.41;;;10.03;93.90
2339;BME280;1180;51.438;6.978;2024-03-06T09:25:07;100909.81;;;10.16;92.60
2339;BME280;1180;51.438;6.978;2024-03-06T09:27:33;100911.75;;;10.11;92.64
2339;BME280;1180;51.438;6.978;2024-03-06T09:29:59;100908.34;;;10.10;92.51
2339;BME280;1180;51.438;6.978;2024-03-06T09:32:24;100914.03;;;10.17;93.02
2339;BME280;1180;51.438;6.978;2024-03-06T09:34:51;100916.72;;;10.14;92.85
2339;BME280;1180;51.438;6.978;2024-03-06T09:37:17;100923.53;;;10.15;93.83
2339;BME280;1180;51.438;6.978;2024-03-06T09:39:43;100920.63;;;10.23;93.68
2339;BME280;1180;51.438;6.978;2024-03-06T09:42:13;100923.56;;;10.33;93.69
2339;BME280;1180;51.438;6.978;2024-03-06T09:44:38;100928.91;;;10.28;94.20
2339;BME280;1180;51.438;6.978;2024-03-06T09:47:05;100925.84;;;10.39;94.13
2339;BME280;1180;51.438;6.978;2024-03-06T09:49:31;100929.19;;;10.41;93.46
2339;BME280;1180;51.438;6.978;2024-03-06T09:51:58;100930.00;;;10.42;94.18
2339;BME280;1180;51.438;6.978;2024-03-06T09:54:25;100931.47;;;10.47;93.71
2339;BME280;1180;51.438;6.978;2024-03-06T09:56:51;100937.00;;;10.57;93.25
2339;BME280;1180;51.438;6.978;2024-03-06T09:59:17;100929.69;;;10.67;93.51
2339;BME280;1180;51.438;6.978;2024-03-06T10:01:56;100936.19;;;10.74;93.51
2339;BME280;1180;51.438;6.978;2024-03-06T10:04:28;100939.19;;;10.82;92.76
2339;BME280;1180;51.438;6.978;2024-03-06T10:06:57;100944.41;;;10.81;92.09
2339;BME280;1180;51.438;6.978;2024-03-06T10:09:24;100945.84;;;10.87;93.05
2339;BME280;1180;51.438;6.978;2024-03-06T10:11:50;100942.81;;;10.96;92.72
2339;BME280;1180;51.438;6.978;2024-03-06T10:14:18;100943.81;;;11.11;92.15
2339;BME280;1180;51.438;6.978;2024-03-06T10:16:58;100944.31;;;11.18;91.53
2339;BME280;1180;51.438;6.978;2024-03-06T10:19:25;100941.13;;;11.12;91.43
2339;BME280;1180;51.438;6.978;2024-03-06T10:21:52;100947.78;;;11.17;91.47
2339;BME280;1180;51.438;6.978;2024-03-06T10:24:22;100942.41;;;11.21;90.58
2339;BME280;1180;51.438;6.978;2024-03-06T10:26:52;100941.56;;;11.21;90.31
2339;BME280;1180;51.438;6.978;2024-03-06T10:29:20;100943.69;;;11.30;90.65
2339;BME280;1180;51.438;6.978;2024-03-06T10:31:51;100946.84;;;11.35;89.86
2339;BME280;1180;51.438;6.978;2024-03-06T10:34:17;100948.34;;;11.39;89.84
2339;BME280;1180;51.438;6.978;2024-03-06T10:36:43;100945.06;;;11.20;89.54
2339;BME280;1180;51.438;6.978;2024-03-06T10:39:11;100951.19;;;11.17;91.72
2339;BME280;1180;51.438;6.978;2024-03-06T10:41:38;100952.22;;;11.31;91.03
2339;BME280;1180;51.438;6.978;2024-03-06T10:44:08;100954.41;;;11.38;90.13
2339;BME280;1180;51.438;6.978;2024-03-06T10:46:40;100962.22;;;11.53;89.52
2339;BME280;1180;51.438;6.978;2024-03-06T10:49:08;100957.44;;;11.63;89.29
2339;BME280;1180;51.438;6.978;2024-03-06T10:51:40;100958.88;;;11.68;89.09
2339;BME280;1180;51.438;6.978;2024-03-06T10:54:08;100962.84;;;11.74;88.39
2339;BME280;1180;51.438;6.978;2024-03-06T10:56:34;100961.53;;;11.83;87.49
2339;BME280;1180;51.438;6.978;2024-03-06T10:58:59;100968.59;;;11.95;87.74
2339;BME280;1180;51.438;6.978;2024-03-06T11:01:27;100963.00;;;11.71;88.15
2339;BME280;1180;51.438;6.978;2024-03-06T11:03:58;100969.06;;;11.86;88.38
2339;BME280;1180;51.438;6.978;2024-03-06T11:06:26;100963.97;;;12.02;87.19
2339;BME280;1180;51.438;6.978;2024-03-06T11:08:51;100966.97;;;12.10;86.94
2339;BME280;1180;51.438;6.978;2024-03-06T11:11:24;100962.31;;;12.17;86.33
2339;BME280;1180;51.438;6.978;2024-03-06T11:13:50;100968.53;;;12.13;85.67
2339;BME280;1180;51.438;6.978;2024-03-06T11:16:27;100968.88;;;12.07;85.53
2339;BME280;1180;51.438;6.978;2024-03-06T11:19:04;100965.63;;;12.19;85.23
2339;BME280;1180;51.438;6.978;2024-03-06T11:21:31;100965.06;;;12.14;84.47
2339;BME280;1180;51.438;6.978;2024-03-06T11:24:17;100966.50;;;11.86;86.24
2339;BME280;1180;51.438;6.978;2024-03-06T11:27:00;100964.47;;;11.59;86.46
2339;BME280;1180;51.438;6.978;2024-03-06T11:30:02;100960.44;;;11.37;89.35
2339;BME280;1180;51.438;6.978;2024-03-06T11:32:16;100958.22;;;11.13;89.93
2339;BME280;1180;51.438;6.978;2024-03-06T11:34:44;100966.50;;;11.36;88.24
2339;BME280;1180;51.438;6.978;2024-03-06T11:37:09;100971.00;;;11.49;86.73
2339;BME280;1180;51.438;6.978;2024-03-06T11:39:36;100965.47;;;11.56;86.17
2339;BME280;1180;51.438;6.978;2024-03-06T11:42:02;100965.97;;;11.47;86.83
2339;BME280;1180;51.438;6.978;2024-03-06T11:44:28;100973.47;;;11.84;87.55
2339;BME280;1180;51.438;6.978;2024-03-06T11:49:24;100965.22;;;12.27;84.34
2339;BME280;1180;51.438;6.978;2024-03-06T11:51:57;100967.06;;;12.09;78.78
2339;BME280;1180;51.438;6.978;2024-03-06T11:54:24;100968.59;;;11.95;80.45
2339;BME280;1180;51.438;6.978;2024-03-06T11:56:52;100970.09;;;11.83;80.11
2339;BME280;1180;51.438;6.978;2024-03-06T11:59:22;100972.38;;;11.88;79.94
2339;BME280;1180;51.438;6.978;2024-03-06T12:01:49;100969.56;;;12.10;79.27
2339;BME280;1180;51.438;6.978;2024-03-06T12:04:14;100971.03;;;12.31;78.62
2339;BME280;1180;51.438;6.978;2024-03-06T12:06:40;100972.34;;;12.38;79.03
2339;BME280;1180;51.438;6.978;2024-03-06T12:09:05;100966.47;;;12.36;79.04
2339;BME280;1180;51.438;6.978;2024-03-06T12:11:35;100965.78;;;12.32;79.31
2339;BME280;1180;51.438;6.978;2024-03-06T12:14:01;100972.41;;;12.36;78.24
2339;BME280;1180;51.438;6.978;2024-03-06T12:16:26;100971.13;;;12.13;77.10
2339;BME280;1180;51.438;6.978;2024-03-06T12:18:57;100982.50;;;11.91;74.48
2339;BME280;1180;51.438;6.978;2024-03-06T12:21:33;100978.09;;;12.11;74.43
2339;BME280;1180;51.438;6.978;2024-03-06T12:24:06;100977.66;;;12.35;73.51
2339;BME280;1180;51.438;6.978;2024-03-06T12:26:32;100969.94;;;12.35;71.52
2339;BME280;1180;51.438;6.978;2024-03-06T12:29:11;100970.91;;;12.48;71.56
2339;BME280;1180;51.438;6.978;2024-03-06T12:31:38;100985.59;;;12.62;71.38
2339;BME280;1180;51.438;6.978;2024-03-06T12:34:07;100970.81;;;12.66;71.97
2339;BME280;1180;51.438;6.978;2024-03-06T12:36:32;100973.53;;;12.79;70.81
2339;BME280;1180;51.438;6.978;2024-03-06T12:38:59;100975.50;;;13.04;69.96
2339;BME280;1180;51.438;6.978;2024-03-06T12:41:26;100973.00;;;13.03;66.89
2339;BME280;1180;51.438;6.978;2024-03-06T12:43:52;100969.91;;;13.26;67.35
2339;BME280;1180;51.438;6.978;2024-03-06T12:46:19;100971.56;;;13.42;67.08
2339;BME280;1180;51.438;6.978;2024-03-06T12:48:45;100966.00;;;13.50;67.16
2339;BME280;1180;51.438;6.978;2024-03-06T12:51:10;100964.28;;;13.20;67.50
2339;BME280;1180;51.438;6.978;2024-03-06T12:53:36;100968.88;;;13.14;68.05
2339;BME280;1180;51.438;6.978;2024-03-06T12:56:01;100965.75;;;13.09;68.11
2339;BME280;1180;51.438;6.978;2024-03-06T12:58:28;100962.06;;;12.99;69.54
2339;BME280;1180;51.438;6.978;2024-03-06T13:00:53;100961.34;;;12.97;68.99
2339;BME280;1180;51.438;6.978;2024-03-06T13:03:19;100959.44;;;12.84;69.70
2339;BME280;1180;51.438;6.978;2024-03-06T13:05:45;100965.03;;;13.07;67.97
2339;BME280;1180;51.438;6.978;2024-03-06T13:08:12;100960.41;;;13.12;67.59
2339;BME280;1180;51.438;6.978;2024-03-06T13:10:41;100956.66;;;13.18;68.26
2339;BME280;1180;51.438;6.978;2024-03-06T13:13:06;100954.28;;;13.29;66.79
2339;BME280;1180;51.438;6.978;2024-03-06T13:15:32;100958.22;;;13.06;65.01